Time;durP1;ratioP1;P1;durP2;ratioP2;P2;SDS_P1;SDS_P2;PMS_P1;PMS_P2;Temp;Humidity;BMP_temperature;BMP_pressure;BME280_temperature;BME280_humidity;BME280_pressure;Samples;Min_cycle;Max_cycle;Signal;HPM_P1;HPM_P2
2022/07/11 00:01:35;;;;;;;5.10;2.72;;;18.20;99.90;;;;;;4956138;28;93319;-69
2022/07/11 00:04:02;;;;;;;5.40;3.72;;;18.20;99.90;;;;;;4971263;28;94159;-68
2022/07/11 00:06:29;;;;;;;3.03;2.72;;;18.30;99.90;;;;;;4954905;28;92417;-68
2022/07/11 00:08:56;;;;;;;4.75;2.70;;;18.30;99.90;;;;;;4956137;28;92490;-68
2022/07/11 00:11:23;;;;;;;5.75;2.58;;;18.30;99.90;;;;;;4953410;28;96766;-68
2022/07/11 00:13:50;;;;;;;3.58;3.20;;;18.30;99.90;;;;;;4955889;28;95306;-68
2022/07/11 00:16:17;;;;;;;3.25;2.95;;;18.20;99.90;;;;;;4971189;28;92450;-68
2022/07/11 00:18:44;;;;;;;4.70;2.80;;;18.20;99.90;;;;;;4955629;28;98931;-69
2022/07/11 00:21:11;;;;;;;3.88;3.50;;;18.20;99.90;;;;;;4954712;28;95869;-68
2022/07/11 00:23:38;;;;;;;4.25;3.85;;;18.20;99.90;;;;;;4970825;28;93026;-69
2022/07/11 00:26:06;;;;;;;3.53;3.08;;;18.30;99.90;;;;;;4956361;28;92836;-69
2022/07/11 00:28:33;;;;;;;4.07;2.35;;;18.30;99.90;;;;;;4956531;28;91699;-68
2022/07/11 00:30:59;;;;;;;4.55;3.45;;;18.30;99.90;;;;;;4959217;28;93108;-68
2022/07/11 00:33:26;;;;;;;5.05;3.17;;;18.30;99.90;;;;;;4958122;28;93049;-68
2022/07/11 00:35:53;;;;;;;5.78;3.00;;;18.30;99.90;;;;;;4958170;28;94931;-68
2022/07/11 00:38:20;;;;;;;2.72;2.38;;;18.30;99.90;;;;;;4959762;28;92499;-68
2022/07/11 00:40:47;;;;;;;5.15;4.05;;;18.30;99.90;;;;;;4941499;28;95676;-68
2022/07/11 00:43:19;;;;;;;4.72;3.85;;;18.20;99.90;;;;;;4959433;28;92941;-68
2022/07/11 00:45:49;;;;;;;3.92;3.22;;;18.20;99.90;;;;;;4973916;28;92501;-68
2022/07/11 00:48:15;;;;;;;4.68;2.78;;;18.30;99.90;;;;;;4959367;28;92425;-68
2022/07/11 00:50:42;;;;;;;3.63;2.78;;;18.20;99.90;;;;;;4957742;28;93227;-68
2022/07/11 00:53:09;;;;;;;3.67;2.63;;;18.20;99.90;;;;;;4974773;28;93075;-68
2022/07/11 00:55:36;;;;;;;3.78;2.20;;;18.20;99.90;;;;;;4974575;28;92948;-68
2022/07/11 00:58:03;;;;;;;3.40;2.88;;;18.20;99.90;;;;;;4974350;28;92492;-68
2022/07/11 01:00:30;;;;;;;3.08;2.78;;;18.20;99.90;;;;;;4972390;28;103378;-68
2022/07/11 01:02:58;;;;;;;3.53;2.63;;;18.20;99.90;;;;;;4958134;28;95467;-69
2022/07/11 01:05:25;;;;;;;4.10;3.78;;;18.20;99.90;;;;;;4974416;28;93058;-68
2022/07/11 01:07:52;;;;;;;2.20;2.00;;;18.10;99.90;;;;;;4957758;28;92359;-69
2022/07/11 01:10:19;;;;;;;2.70;2.50;;;18.20;99.90;;;;;;4957618;28;93288;-68
2022/07/11 01:12:46;;;;;;;4.85;2.22;;;18.20;99.90;;;;;;4958737;28;92803;-68
2022/07/11 01:15:14;;;;;;;3.13;2.83;;;18.20;99.80;;;;;;4959207;28;93335;-68
2022/07/11 01:17:41;;;;;;;3.40;2.47;;;18.20;99.80;;;;;;4959034;28;91717;-68
2022/07/11 01:20:09;;;;;;;2.63;2.03;;;18.20;99.80;;;;;;4973555;28;93161;-68
2022/07/11 01:22:43;;;;;;;2.78;2.58;;;18.20;99.80;;;;;;4957220;28;96646;-68
2022/07/11 01:25:10;;;;;;;2.95;1.80;;;18.20;99.80;;;;;;4957811;28;95350;-68
2022/07/11 01:27:38;;;;;;;3.85;2.80;;;18.20;99.80;;;;;;4958702;28;92466;-68
2022/07/11 01:30:05;;;;;;;1.77;1.55;;;18.10;99.80;;;;;;4973403;28;93305;-68
2022/07/11 01:32:32;;;;;;;2.38;1.95;;;18.10;99.90;;;;;;4958559;28;92907;-69
2022/07/11 01:34:59;;;;;;;4.40;4.03;;;18.10;99.90;;;;;;4973630;28;93043;-68
2022/07/11 01:37:26;;;;;;;2.22;2.03;;;18.10;99.90;;;;;;4957526;28;93227;-68
2022/07/11 01:39:52;;;;;;;3.15;2.03;;;18.10;99.90;;;;;;4956642;28;93118;-68
2022/07/11 01:42:19;;;;;;;2.65;1.60;;;18.00;99.90;;;;;;4972784;28;93008;-68
2022/07/11 01:44:46;;;;;;;2.83;1.70;;;18.00;99.90;;;;;;4958752;28;93025;-68
2022/07/11 01:47:13;;;;;;;4.95;2.60;;;18.00;99.90;;;;;;4973731;28;92480;-68
2022/07/11 01:49:40;;;;;;;3.08;2.78;;;18.00;99.90;;;;;;4956023;28;95584;-68
2022/07/11 01:52:08;;;;;;;3.75;2.08;;;18.00;99.90;;;;;;4957961;28;93961;-68
2022/07/11 01:54:35;;;;;;;3.63;3.33;;;18.00;99.90;;;;;;4958743;28;92472;-69
2022/07/11 01:57:02;;;;;;;3.83;2.80;;;18.00;99.90;;;;;;4957861;28;92430;-69
2022/07/11 01:59:29;;;;;;;5.57;3.20;;;18.00;99.90;;;;;;4973212;28;93328;-68
2022/07/11 02:01:56;;;;;;;5.97;2.25;;;18.00;99.90;;;;;;4957476;28;93008;-68
2022/07/11 02:04:23;;;;;;;3.67;3.13;;;18.00;99.90;;;;;;4973435;28;93136;-68
2022/07/11 02:06:50;;;;;;;4.63;3.60;;;18.00;99.90;;;;;;4957153;28;92563;-68
2022/07/11 02:09:16;;;;;;;3.58;3.13;;;18.00;99.90;;;;;;4955817;28;108740;-68
2022/07/11 02:11:43;;;;;;;3.78;2.70;;;18.00;99.90;;;;;;4957924;28;93007;-68
2022/07/11 02:14:10;;;;;;;4.68;2.25;;;18.00;99.90;;;;;;4971886;28;95031;-68
2022/07/11 02:16:37;;;;;;;3.80;3.53;;;18.10;99.90;;;;;;4972818;28;92961;-68
2022/07/11 02:19:05;;;;;;;5.78;3.67;;;18.00;99.90;;;;;;4957424;28;93396;-69
2022/07/11 02:21:33;;;;;;;3.08;2.53;;;18.10;99.90;;;;;;4956421;28;95505;-68
2022/07/11 02:24:00;;;;;;;4.88;2.60;;;18.00;99.90;;;;;;4957677;28;92433;-68
2022/07/11 02:26:27;;;;;;;6.57;3.92;;;18.00;99.90;;;;;;4957785;28;92459;-69
2022/07/11 02:28:54;;;;;;;4.68;2.95;;;18.10;99.90;;;;;;4955967;28;95690;-69
2022/07/11 02:31:21;;;;;;;5.15;2.90;;;18.10;99.90;;;;;;4956564;28;95472;-68
2022/07/11 02:33:48;;;;;;;5.88;4.15;;;18.10;99.90;;;;;;4972783;28;92407;-68
2022/07/11 02:36:15;;;;;;;3.53;3.13;;;18.10;99.90;;;;;;4972425;28;92439;-68
2022/07/11 02:38:43;;;;;;;4.72;2.63;;;18.10;99.90;;;;;;4956135;28;95355;-68
2022/07/11 02:41:10;;;;;;;4.53;4.10;;;18.10;99.90;;;;;;4955903;28;96572;-68
2022/07/11 02:43:37;;;;;;;5.18;4.05;;;18.10;99.90;;;;;;4957591;28;92353;-68
2022/07/11 02:46:04;;;;;;;4.05;3.63;;;18.10;99.90;;;;;;4956254;28;92311;-69
2022/07/11 02:48:32;;;;;;;4.95;2.70;;;18.10;99.90;;;;;;4956111;28;94238;-68
2022/07/11 02:50:58;;;;;;;4.68;3.88;;;18.00;99.90;;;;;;4955301;28;97430;-69
2022/07/11 02:53:25;;;;;;;3.47;3.13;;;18.00;99.90;;;;;;4957369;28;92446;-68
2022/07/11 02:55:52;;;;;;;5.03;3.40;;;18.00;99.90;;;;;;4972751;28;91885;-68
2022/07/11 02:58:19;;;;;;;5.20;3.05;;;18.00;99.90;;;;;;4939164;28;108748;-68
2022/07/11 03:00:46;;;;;;;5.13;3.78;;;18.00;99.90;;;;;;4955780;28;95787;-68
2022/07/11 03:03:13;;;;;;;7.18;3.78;;;18.00;99.90;;;;;;4955737;28;94975;-68
2022/07/11 03:05:40;;;;;;;3.72;3.40;;;18.00;99.90;;;;;;4972409;28;92517;-68
2022/07/11 03:08:07;;;;;;;4.60;2.97;;;18.00;99.90;;;;;;4955864;28;93126;-68
2022/07/11 03:10:34;;;;;;;5.05;4.18;;;18.00;99.90;;;;;;4955830;28;93099;-68
2022/07/11 03:13:01;;;;;;;5.80;3.53;;;18.00;99.90;;;;;;4972136;28;92514;-68
2022/07/11 03:15:28;;;;;;;4.20;3.10;;;18.00;99.90;;;;;;4972132;28;92628;-68
2022/07/11 03:17:55;;;;;;;5.07;3.95;;;18.00;99.90;;;;;;4957024;28;93013;-69
2022/07/11 03:20:22;;;;;;;4.55;4.18;;;18.00;99.90;;;;;;4957045;28;93090;-68
2022/07/11 03:22:50;;;;;;;5.72;3.60;;;18.00;99.90;;;;;;4957237;28;92493;-68
2022/07/11 03:25:17;;;;;;;3.13;2.83;;;18.00;99.90;;;;;;4956259;28;101193;-68
2022/07/11 03:27:43;;;;;;;4.88;4.40;;;18.00;99.90;;;;;;4955669;28;95666;-68
2022/07/11 03:30:10;;;;;;;4.38;4.07;;;18.00;99.90;;;;;;4971416;28;95461;-68
2022/07/11 03:32:37;;;;;;;6.75;4.18;;;18.10;99.90;;;;;;4971930;28;92600;-69
2022/07/11 03:37:50;;;;;;;3.45;3.05;;;18.10;99.90;;;;;;4969323;28;93197;-68
2022/07/11 03:40:17;;;;;;;4.45;3.08;;;18.10;99.90;;;;;;4971541;28;93142;-68
2022/07/11 03:42:44;;;;;;;3.95;3.55;;;18.10;99.90;;;;;;4971731;28;92533;-68
2022/07/11 03:45:11;;;;;;;4.20;3.80;;;18.10;99.90;;;;;;4956710;28;91844;-68
2022/07/11 03:47:39;;;;;;;4.32;3.58;;;18.10;99.90;;;;;;4956698;28;93338;-68
2022/07/11 03:50:06;;;;;;;3.28;2.97;;;18.10;99.90;;;;;;4956354;28;92764;-68
2022/07/11 03:52:33;;;;;;;5.40;4.20;;;18.10;99.90;;;;;;4955344;28;94836;-68
2022/07/11 03:55:00;;;;;;;4.32;3.63;;;18.00;99.90;;;;;;4956412;28;93386;-68
2022/07/11 03:57:27;;;;;;;4.10;3.50;;;18.00;99.90;;;;;;4955904;28;93256;-68
2022/07/11 03:59:54;;;;;;;5.70;5.07;;;18.00;99.90;;;;;;4956308;28;93056;-68
2022/07/11 04:02:21;;;;;;;4.68;4.38;;;18.00;99.90;;;;;;4971015;28;93005;-68
2022/07/11 04:04:48;;;;;;;3.92;3.58;;;18.10;99.90;;;;;;4955976;28;92502;-68
2022/07/11 04:07:15;;;;;;;3.90;3.13;;;18.10;99.90;;;;;;4970963;28;93139;-68
2022/07/11 04:09:42;;;;;;;5.00;4.57;;;18.00;99.90;;;;;;4955459;28;92841;-69
2022/07/11 04:12:08;;;;;;;4.88;4.47;;;18.10;99.90;;;;;;4970911;28;92421;-68
2022/07/11 04:14:36;;;;;;;3.47;3.15;;;18.10;99.90;;;;;;4954804;28;92469;-68
2022/07/11 04:17:03;;;;;;;4.80;2.60;;;18.10;99.90;;;;;;4954673;28;95703;-68
2022/07/11 04:19:30;;;;;;;3.72;2.42;;;18.10;99.90;;;;;;4955895;28;95406;-68
2022/07/11 04:21:58;;;;;;;2.50;1.95;;;18.00;99.90;;;;;;4954815;28;92527;-68
2022/07/11 04:24:24;;;;;;;2.45;2.17;;;18.00;99.90;;;;;;4954242;28;101626;-68
2022/07/11 04:26:51;;;;;;;1.85;1.70;;;18.00;99.90;;;;;;4954351;28;95689;-68
2022/07/11 04:29:18;;;;;;;2.92;2.80;;;17.90;99.90;;;;;;4970944;28;92591;-68
2022/07/11 04:31:45;;;;;;;2.63;2.42;;;17.90;99.90;;;;;;4971334;28;92551;-68
2022/07/11 04:34:13;;;;;;;1.85;1.73;;;18.00;99.90;;;;;;4955043;28;91791;-68
2022/07/11 04:36:40;;;;;;;3.03;2.83;;;18.00;99.90;;;;;;4956018;28;93290;-68
2022/07/11 04:39:07;;;;;;;1.60;1.25;;;18.00;99.90;;;;;;4955767;28;92932;-68
2022/07/11 04:41:34;;;;;;;2.72;2.33;;;18.00;99.90;;;;;;4954603;28;94832;-68
2022/07/11 04:44:01;;;;;;;1.50;1.40;;;18.00;99.90;;;;;;4971186;28;92495;-68
2022/07/11 04:46:29;;;;;;;1.73;1.60;;;18.00;99.90;;;;;;4954037;28;95736;-68
2022/07/11 04:48:56;;;;;;;2.40;1.95;;;18.00;99.90;;;;;;4955641;28;95143;-68
2022/07/11 04:51:24;;;;;;;2.28;2.10;;;18.00;99.90;;;;;;4955664;28;92924;-68
2022/07/11 04:53:51;;;;;;;1.88;1.77;;;18.10;99.90;;;;;;4955630;28;92457;-68
2022/07/11 04:56:18;;;;;;;2.40;2.15;;;18.10;99.90;;;;;;4955261;28;98885;-69
2022/07/11 04:58:45;;;;;;;3.40;2.00;;;18.10;99.90;;;;;;4955904;28;92924;-68
2022/07/11 05:01:12;;;;;;;2.33;1.67;;;18.10;99.90;;;;;;4970604;28;92491;-68
2022/07/11 05:03:39;;;;;;;3.35;2.83;;;18.10;99.90;;;;;;4955263;28;92544;-68
2022/07/11 05:06:06;;;;;;;2.05;1.70;;;18.20;99.90;;;;;;4969289;28;94919;-69
2022/07/11 05:08:36;;;;;;;1.63;1.50;;;18.10;99.90;;;;;;4970084;28;95398;-68
2022/07/11 05:11:04;;;;;;;1.95;1.40;;;18.10;99.90;;;;;;4955644;28;92454;-69
2022/07/11 05:13:31;;;;;;;2.25;1.27;;;18.10;99.90;;;;;;4954255;28;93090;-68
2022/07/11 05:15:58;;;;;;;1.88;1.50;;;18.10;99.90;;;;;;4940024;28;94293;-68
2022/07/11 05:18:25;;;;;;;3.05;2.25;;;18.20;99.90;;;;;;4956955;28;95408;-69
2022/07/11 05:20:52;;;;;;;2.40;1.52;;;18.10;99.90;;;;;;4959080;28;92368;-68
2022/07/11 05:23:19;;;;;;;2.22;1.92;;;18.20;99.90;;;;;;4957897;28;91861;-69
2022/07/11 05:25:46;;;;;;;3.05;2.85;;;18.20;99.90;;;;;;4958757;28;93365;-68
2022/07/11 05:28:13;;;;;;;2.78;1.73;;;18.20;99.90;;;;;;4973838;28;93031;-68
2022/07/11 05:30:40;;;;;;;2.83;1.45;;;18.20;99.90;;;;;;4956311;28;94913;-68
2022/07/11 05:33:07;;;;;;;3.22;3.00;;;18.20;99.90;;;;;;4958491;28;92535;-68
2022/07/11 05:35:34;;;;;;;1.65;1.55;;;18.30;99.90;;;;;;4956420;28;108561;-69
2022/07/11 05:38:01;;;;;;;1.60;1.48;;;18.30;99.90;;;;;;4957113;28;95657;-68
2022/07/11 05:40:28;;;;;;;1.55;1.10;;;18.30;99.90;;;;;;4973468;28;92484;-68
2022/07/11 05:42:55;;;;;;;2.22;1.77;;;18.30;99.90;;;;;;4941002;28;93097;-68
2022/07/11 05:45:22;;;;;;;2.08;1.20;;;18.40;99.90;;;;;;4958176;28;93271;-69
2022/07/11 05:47:49;;;;;;;3.03;2.05;;;18.40;99.90;;;;;;4957426;28;93017;-68
2022/07/11 05:50:16;;;;;;;1.20;1.00;;;18.50;99.90;;;;;;4958253;28;92415;-68
2022/07/11 05:52:43;;;;;;;2.42;0.90;;;18.60;99.90;;;;;;4956732;28;92725;-68
2022/07/11 05:55:10;;;;;;;2.65;2.45;;;18.70;99.90;;;;;;4957160;28;95632;-69
2022/07/11 05:57:44;;;;;;;1.40;1.00;;;18.90;99.90;;;;;;4957863;28;95257;-69
2022/07/11 06:00:11;;;;;;;1.20;1.10;;;18.90;99.90;;;;;;4973464;28;92996;-69
2022/07/11 06:02:38;;;;;;;1.90;1.75;;;19.10;99.90;;;;;;4972751;28;92701;-69
2022/07/11 06:05:05;;;;;;;1.80;1.13;;;19.20;99.90;;;;;;4973099;28;93045;-69
2022/07/11 06:10:23;;;;;;;1.55;0.93;;;19.40;99.90;;;;;;4956890;28;92536;-69
2022/07/11 06:12:50;;;;;;;2.00;1.15;;;19.50;99.90;;;;;;4958577;28;91729;-69
2022/07/11 06:15:17;;;;;;;7.57;3.10;;;19.50;99.90;;;;;;4972821;28;93334;-69
2022/07/11 06:17:44;;;;;;;3.00;1.27;;;19.60;99.60;;;;;;4957492;28;93031;-69
2022/07/11 06:20:12;;;;;;;1.38;0.98;;;19.70;99.60;;;;;;4955622;28;95074;-69
2022/07/11 06:22:39;;;;;;;1.60;1.27;;;19.80;99.60;;;;;;4957218;28;98486;-69
2022/07/11 06:25:06;;;;;;;2.25;1.58;;;19.90;99.00;;;;;;4956494;28;92485;-69
2022/07/11 06:27:33;;;;;;;1.25;1.05;;;19.90;98.90;;;;;;4956855;28;93090;-69
2022/07/11 06:30:00;;;;;;;2.53;2.33;;;20.00;98.70;;;;;;4956550;28;92479;-69
2022/07/11 06:32:27;;;;;;;2.42;2.03;;;20.20;98.50;;;;;;4956419;28;92469;-69
2022/07/11 06:34:54;;;;;;;1.17;1.17;;;20.40;97.80;;;;;;4957648;28;93091;-69
2022/07/11 06:37:21;;;;;;;1.40;0.80;;;20.50;97.80;;;;;;4972815;28;92896;-69
2022/07/11 06:39:48;;;;;;;1.23;0.73;;;20.60;97.70;;;;;;4957673;28;92899;-69
2022/07/11 06:42:15;;;;;;;2.40;1.88;;;20.60;97.60;;;;;;4957792;28;92577;-69
2022/07/11 06:44:46;;;;;;;1.33;1.23;;;20.50;97.30;;;;;;4956130;28;95573;-69
2022/07/11 06:47:13;;;;;;;1.42;1.30;;;20.40;97.50;;;;;;4939703;28;96569;-69
2022/07/11 06:49:40;;;;;;;0.65;0.65;;;20.30;97.70;;;;;;4939606;28;92521;-69
2022/07/11 06:52:07;;;;;;;2.40;0.80;;;20.20;97.80;;;;;;4955734;28;105396;-69
2022/07/11 06:54:33;;;;;;;2.17;2.08;;;20.20;98.10;;;;;;4955476;28;94227;-69
2022/07/11 06:57:00;;;;;;;2.25;1.20;;;20.30;98.10;;;;;;4957142;28;92544;-69
2022/07/11 06:59:27;;;;;;;1.23;0.90;;;20.50;98.00;;;;;;4957640;28;92493;-69
2022/07/11 07:01:54;;;;;;;0.68;0.63;;;20.60;97.60;;;;;;4957306;28;92111;-69
2022/07/11 07:04:21;;;;;;;0.75;0.50;;;20.80;97.20;;;;;;4955624;28;95762;-69
2022/07/11 07:06:48;;;;;;;2.35;1.65;;;21.00;96.80;;;;;;4956840;28;95112;-69
2022/07/11 07:09:15;;;;;;;1.25;1.20;;;21.20;96.60;;;;;;4955917;28;94827;-69
2022/07/11 07:11:42;;;;;;;1.27;0.60;;;21.30;96.60;;;;;;4957070;28;93068;-69
2022/07/11 07:14:09;;;;;;;2.45;2.35;;;21.30;96.50;;;;;;4955760;28;93402;-69
2022/07/11 07:16:36;;;;;;;2.65;1.58;;;21.20;96.60;;;;;;4971834;28;92587;-69
2022/07/11 07:19:03;;;;;;;0.63;0.60;;;21.30;96.70;;;;;;4957062;28;92645;-69
2022/07/11 07:21:30;;;;;;;1.88;0.80;;;21.40;96.70;;;;;;4957189;28;93029;-69
2022/07/11 07:23:57;;;;;;;1.20;1.20;;;21.40;96.60;;;;;;4956563;28;93284;-69
2022/07/11 07:26:24;;;;;;;1.30;1.25;;;21.30;96.00;;;;;;4957285;28;93183;-69
2022/07/11 07:28:51;;;;;;;0.90;0.90;;;21.50;96.50;;;;;;4956883;28;92555;-69
2022/07/11 07:31:18;;;;;;;0.50;0.50;;;21.60;96.20;;;;;;4955826;28;93118;-69
2022/07/11 07:33:46;;;;;;;1.15;1.15;;;21.90;95.70;;;;;;4970222;28;95581;-69
2022/07/11 07:36:14;;;;;;;0.88;0.88;;;22.00;95.20;;;;;;4956760;28;95225;-69
2022/07/11 07:38:43;;;;;;;0.30;0.30;;;22.10;94.80;;;;;;4970603;28;92956;-69
2022/07/11 07:41:11;;;;;;;0.60;0.60;;;22.30;94.80;;;;;;4957037;28;92418;-69
2022/07/11 07:43:38;;;;;;;0.82;0.82;;;22.40;94.50;;;;;;4971336;28;93054;-69
2022/07/11 07:46:05;;;;;;;0.60;0.50;;;22.40;94.10;;;;;;4971464;28;92927;-69
2022/07/11 07:48:32;;;;;;;0.90;0.90;;;22.50;94.30;;;;;;4956572;28;92355;-69
2022/07/11 07:51:00;;;;;;;0.40;0.30;;;22.50;94.40;;;;;;4956458;28;91742;-69
2022/07/11 07:53:27;;;;;;;0.60;0.40;;;22.50;94.40;;;;;;4956343;28;93486;-69
2022/07/11 07:55:54;;;;;;;1.45;0.93;;;22.50;94.30;;;;;;4955030;28;93086;-69
2022/07/11 07:58:21;;;;;;;0.57;0.57;;;22.50;94.40;;;;;;4953955;28;94944;-69
2022/07/11 08:03:33;;;;;;;0.52;0.50;;;22.20;94.80;;;;;;4968470;28;93180;-69
2022/07/11 08:06:00;;;;;;;1.05;1.05;;;22.00;94.90;;;;;;4955985;28;92937;-69
2022/07/11 08:08:27;;;;;;;0.90;0.50;;;21.90;95.10;;;;;;4956418;28;92406;-69
2022/07/11 08:10:55;;;;;;;0.40;0.40;;;21.90;95.10;;;;;;4956062;28;93255;-69
2022/07/11 08:13:41;;;;;;;2.17;0.68;;;21.90;95.20;;;;;;4956557;28;93082;-69
2022/07/11 08:16:08;;;;;;;1.75;1.48;;;21.80;95.40;;;;;;4956636;28;92931;-69
2022/07/11 08:18:35;;;;;;;0.80;0.80;;;21.80;95.50;;;;;;4956171;28;92428;-69
2022/07/11 08:21:02;;;;;;;2.50;1.00;;;21.80;95.60;;;;;;4954736;28;93238;-69
2022/07/11 08:23:29;;;;;;;2.03;1.92;;;21.80;95.60;;;;;;4954852;28;95519;-69
2022/07/11 08:25:57;;;;;;;3.30;1.95;;;21.70;95.50;;;;;;4954584;28;95442;-69
2022/07/11 08:28:24;;;;;;;1.10;1.08;;;21.70;95.80;;;;;;4987542;28;92874;-69
2022/07/11 08:30:51;;;;;;;1.45;0.73;;;21.60;95.90;;;;;;4954664;28;92498;-69
2022/07/11 08:33:18;;;;;;;1.80;1.80;;;21.60;96.10;;;;;;4955929;28;93074;-69
2022/07/11 08:35:45;;;;;;;1.60;1.60;;;21.50;96.40;;;;;;4970801;28;93002;-69
2022/07/11 08:38:13;;;;;;;1.25;1.10;;;21.40;96.70;;;;;;4954825;28;92467;-69
2022/07/11 08:40:43;;;;;;;0.55;0.55;;;21.40;97.10;;;;;;4971837;28;92271;-69
2022/07/11 08:43:15;;;;;;;0.85;0.80;;;21.50;97.00;;;;;;4970381;28;93338;-69
2022/07/11 08:45:42;;;;;;;2.38;2.13;;;21.70;96.50;;;;;;4954745;28;93598;-69
2022/07/11 08:48:12;;;;;;;2.90;1.55;;;21.80;96.50;;;;;;4954517;28;94720;-69
2022/07/11 08:50:39;;;;;;;2.05;1.73;;;21.90;96.30;;;;;;4957575;28;92421;-69
2022/07/11 08:53:06;;;;;;;0.73;0.70;;;22.10;96.10;;;;;;4973899;28;93349;-69
2022/07/11 08:55:39;;;;;;;;;;;22.40;95.60;;;;;;4959730;28;93131;-69
2022/07/11 08:58:08;;;;;;;0.90;0.70;;;22.60;95.00;;;;;;4942148;28;102922;-69
2022/07/11 09:00:38;;;;;;;1.10;1.10;;;22.80;94.90;;;;;;4959161;28;92443;-69
2022/07/11 09:03:07;;;;;;;1.63;1.10;;;23.10;94.60;;;;;;4958447;28;93252;-69
2022/07/11 09:05:35;;;;;;;2.33;2.03;;;23.10;94.10;;;;;;4959303;28;93037;-69
2022/07/11 09:08:02;;;;;;;2.15;0.77;;;23.10;94.10;;;;;;4973935;28;92487;-69
2022/07/11 09:10:29;;;;;;;2.83;0.60;;;22.90;94.00;;;;;;4958047;28;93424;-69
2022/07/11 09:13:07;;;;;;;2.08;1.90;;;22.70;94.20;;;;;;4957518;28;95547;-69
2022/07/11 09:15:40;;;;;;;1.90;1.13;;;22.60;94.00;;;;;;4957690;28;100256;-69
2022/07/11 09:18:36;;;;;;;2.20;1.00;;;22.50;94.40;;;;;;4957333;28;92621;-69
2022/07/11 09:26:51;;;;;;;0.75;0.75;;;22.30;94.80;;;;;;4958517;28;92921;-69
2022/07/11 09:29:20;;;;;;;1.17;0.98;;;22.30;94.90;;;;;;4957486;28;92553;-69
2022/07/11 09:31:48;;;;;;;1.50;1.40;;;22.40;94.50;;;;;;4958911;28;91733;-69
2022/07/11 09:34:17;;;;;;;0.63;0.63;;;22.50;94.50;;;;;;4956474;28;94292;-69
2022/07/11 09:36:45;;;;;;;1.48;1.38;;;22.60;94.50;;;;;;4958332;28;92810;-69
2022/07/11 09:39:17;;;;;;;1.25;0.43;;;22.60;94.20;;;;;;4956800;28;94818;-69
2022/07/11 09:41:46;;;;;;;1.52;1.52;;;22.60;93.60;;;;;;4958475;28;92632;-69
2022/07/11 09:44:27;;;;;;;0.50;0.40;;;22.40;93.80;;;;;;4957721;28;93138;-69
2022/07/11 09:46:56;;;;;;;1.15;0.38;;;22.30;94.10;;;;;;4958120;28;93162;-69
2022/07/11 09:49:39;;;;;;;0.93;0.93;;;22.10;94.60;;;;;;4956962;28;92447;-69
2022/07/11 09:52:17;;;;;;;1.85;1.30;;;21.90;94.40;;;;;;4958223;28;92465;-69
2022/07/11 09:54:56;;;;;;;1.55;1.48;;;21.90;94.60;;;;;;4958005;28;93155;-69
2022/07/11 09:57:33;;;;;;;0.28;0.28;;;21.80;94.50;;;;;;4958604;28;93513;-69
2022/07/11 10:00:06;;;;;;;0.45;0.40;;;21.80;94.70;;;;;;4957765;28;92348;-69
2022/07/11 10:02:33;;;;;;;0.50;0.50;;;21.80;94.70;;;;;;4956891;28;92465;-69
2022/07/11 10:05:01;;;;;;;0.63;0.43;;;21.80;94.80;;;;;;4956442;28;95148;-69
2022/07/11 10:07:29;;;;;;;1.55;1.45;;;21.70;95.00;;;;;;4956495;28;96769;-69
2022/07/11 10:10:00;;;;;;;1.35;0.82;;;21.60;95.20;;;;;;4958073;28;92562;-69
2022/07/11 10:12:29;;;;;;;1.55;0.85;;;21.50;95.30;;;;;;4972871;28;92462;-69
2022/07/11 10:14:58;;;;;;;2.00;1.02;;;21.40;95.40;;;;;;4957562;28;93319;-69
2022/07/11 10:17:47;;;;;;;1.75;1.65;;;21.30;95.60;;;;;;4957305;28;103047;-69
2022/07/11 10:20:31;;;;;;;0.60;0.57;;;21.30;95.60;;;;;;4957655;28;92380;-69
2022/07/11 10:23:20;;;;;;;1.38;1.38;;;21.40;95.70;;;;;;4956618;28;91739;-69
2022/07/11 10:25:56;;;;;;;1.00;0.70;;;21.60;95.30;;;;;;4957725;28;93251;-69
2022/07/11 10:28:30;;;;;;;0.90;0.65;;;21.60;95.40;;;;;;4956150;28;93703;-69
2022/07/11 10:31:01;;;;;;;1.38;0.98;;;21.80;95.20;;;;;;4956696;28;94819;-69
2022/07/11 10:33:29;;;;;;;2.10;0.80;;;22.10;94.90;;;;;;4956048;28;92386;-69
2022/07/11 10:35:58;;;;;;;2.20;1.65;;;22.30;94.50;;;;;;4956331;28;93319;-69
2022/07/11 10:38:25;;;;;;;1.30;0.50;;;22.50;94.10;;;;;;4957031;28;92794;-69
2022/07/11 10:40:57;;;;;;;0.80;0.40;;;22.60;93.50;;;;;;4957537;28;92958;-69
2022/07/11 10:43:36;;;;;;;0.95;0.90;;;22.70;93.20;;;;;;4956289;28;92504;-69
2022/07/11 10:46:05;;;;;;;0.65;0.30;;;22.80;93.00;;;;;;4955829;28;95831;-69
2022/07/11 10:49:00;;;;;;;1.13;1.02;;;22.70;93.20;;;;;;4956155;28;94114;-69
2022/07/11 10:51:52;;;;;;;2.25;1.85;;;22.60;93.40;;;;;;4947818;28;92589;-69
2022/07/11 10:54:42;;;;;;;1.08;1.08;;;22.60;93.50;;;;;;4955817;28;92498;-69
2022/07/11 10:57:36;;;;;;;1.48;1.45;;;22.70;93.40;;;;;;4955579;28;95554;-69
2022/07/11 11:00:04;;;;;;;1.98;1.85;;;23.00;93.20;;;;;;4955310;28;95467;-69
2022/07/11 11:02:52;;;;;;;0.75;0.75;;;23.20;92.90;;;;;;4956375;28;100226;-69
2022/07/11 11:05:54;;;;;;;0.80;0.80;;;23.20;92.80;;;;;;4956980;28;92415;-69
2022/07/11 11:08:40;;;;;;;1.30;0.73;;;23.10;92.70;;;;;;4970674;28;92984;-69
2022/07/11 11:11:35;;;;;;;1.73;1.60;;;22.90;93.10;;;;;;4956342;28;93226;-69
2022/07/11 11:14:19;;;;;;;1.13;0.70;;;22.70;93.30;;;;;;4952582;28;92490;-69
2022/07/11 11:16:46;;;;;;;1.15;1.15;;;22.70;93.40;;;;;;4972294;28;91817;-69
2022/07/11 11:19:50;;;;;;;2.30;1.02;;;22.70;93.60;;;;;;4955293;28;93326;-69
2022/07/11 11:22:22;;;;;;;1.05;0.90;;;22.90;93.10;;;;;;4956055;28;93132;-69
2022/07/11 11:24:53;;;;;;;1.10;1.10;;;23.20;93.10;;;;;;4955866;28;94862;-69
2022/07/11 11:28:02;;;;;;;0.85;0.85;;;23.40;92.70;;;;;;4955222;28;92464;-69
2022/07/11 11:30:29;;;;;;;0.82;0.75;;;23.60;92.20;;;;;;4956622;28;93356;-69
2022/07/11 11:32:56;;;;;;;2.80;1.08;;;23.50;92.60;;;;;;4956587;28;92975;-69
2022/07/11 11:35:23;;;;;;;0.40;0.40;;;23.50;92.70;;;;;;4955210;28;92635;-69
2022/07/11 11:37:56;;;;;;;1.10;0.60;;;23.60;92.50;;;;;;4970610;28;92512;-69
2022/07/11 11:40:23;;;;;;;0.85;0.85;;;23.70;92.30;;;;;;4954942;28;93318;-69
2022/07/11 11:42:50;;;;;;;1.10;0.43;;;23.80;92.00;;;;;;4956873;28;92969;-69
2022/07/11 11:45:18;;;;;;;0.60;0.60;;;23.90;91.70;;;;;;4955323;28;92947;-69
2022/07/11 11:47:48;;;;;;;0.77;0.50;;;24.00;91.60;;;;;;4955183;28;92452;-69
2022/07/11 11:50:16;;;;;;;1.25;1.25;;;24.00;91.30;;;;;;4955000;28;95837;-69
2022/07/11 11:52:44;;;;;;;2.20;1.08;;;23.90;91.30;;;;;;4956301;28;95260;-69
2022/07/11 11:55:11;;;;;;;0.90;0.80;;;23.80;91.60;;;;;;4956403;28;92431;-69
2022/07/11 11:57:40;;;;;;;1.45;1.35;;;23.70;91.90;;;;;;4956469;28;92396;-69
2022/07/11 12:00:21;;;;;;;2.17;2.08;;;23.80;92.10;;;;;;4956174;28;93246;-69
2022/07/11 12:03:01;;;;;;;0.80;0.80;;;23.80;91.50;;;;;;4955726;28;92530;-69
2022/07/11 12:05:29;;;;;;;2.58;1.77;;;23.80;91.90;;;;;;4954922;28;92455;-69
2022/07/11 12:07:56;;;;;;;1.08;1.08;;;23.80;91.80;;;;;;4956074;28;103745;-69
2022/07/11 12:10:23;;;;;;;3.25;1.00;;;23.80;91.90;;;;;;4955962;28;93196;-69
2022/07/11 12:12:53;;;;;;;1.63;1.52;;;23.80;91.70;;;;;;4954641;28;95447;-69
2022/07/11 12:16:39;;;;;;;1.10;0.50;;;23.80;91.70;;;;;;4937369;28;94983;-69
2022/07/11 12:18:24;;;;;;;0.50;0.50;;;23.80;91.50;;;;;;4955539;28;93091;-69
2022/07/11 12:20:52;;;;;;;1.17;1.08;;;23.60;91.80;;;;;;4955621;28;93316;-69
2022/07/11 12:23:19;;;;;;;2.47;2.28;;;23.50;92.00;;;;;;4955651;28;93252;-69
2022/07/11 12:25:52;;;;;;;1.25;1.13;;;23.40;92.20;;;;;;4953943;28;92682;-69
2022/07/11 12:28:19;;;;;;;1.55;1.10;;;23.40;92.10;;;;;;4955718;28;92471;-69
2022/07/11 12:30:46;;;;;;;1.40;0.70;;;23.40;92.10;;;;;;4954828;28;93161;-69
2022/07/11 12:33:14;;;;;;;1.13;1.02;;;23.50;92.10;;;;;;4955988;28;91835;-69
2022/07/11 12:35:59;;;;;;;1.02;1.02;;;23.40;91.80;;;;;;4955733;28;92445;-69
2022/07/11 12:38:46;;;;;;;1.60;1.55;;;23.60;91.90;;;;;;4954431;28;92430;-69
2022/07/11 12:41:14;;;;;;;1.67;0.90;;;23.40;92.50;;;;;;4954422;28;95758;-69
2022/07/11 12:46:34;;;;;;;1.30;0.90;;;23.20;92.30;;;;;;4955785;28;93346;-69
2022/07/11 12:49:05;;;;;;;2.60;1.20;;;23.20;92.40;;;;;;4954332;28;92462;-69
2022/07/11 12:51:40;;;;;;;2.05;1.00;;;23.40;92.30;;;;;;4970154;28;93221;-69
2022/07/11 12:54:17;;;;;;;1.80;1.10;;;23.60;92.00;;;;;;4954062;28;93984;-69
2022/07/11 12:56:58;;;;;;;1.25;0.80;;;23.90;91.60;;;;;;4955955;28;92374;-69
2022/07/11 12:59:26;;;;;;;1.45;1.35;;;24.20;91.10;;;;;;4954460;28;92202;-69
2022/07/11 13:01:54;;;;;;;1.23;1.13;;;24.10;91.10;;;;;;4970473;28;93319;-69
2022/07/11 13:04:31;;;;;;;1.65;1.55;;;24.10;90.90;;;;;;4953979;28;93089;-69
2022/07/11 13:10:03;;;;;;;;;;;23.90;91.40;;;;;;4954320;28;92462;-71
2022/07/11 13:12:30;;;;;;;1.38;1.27;;;23.70;91.80;;;;;;4956216;28;93285;-71
2022/07/11 13:15:11;;;;;;;1.85;1.75;;;23.70;91.80;;;;;;4953916;28;93051;-71
2022/07/11 13:17:41;;;;;;;2.13;1.48;;;23.80;91.60;;;;;;4953895;28;92632;-71
2022/07/11 13:20:14;;;;;;;1.83;1.73;;;23.90;91.60;;;;;;4953946;28;92510;-71